Time;durP1;ratioP1;P1;durP2;ratioP2;P2;SDS_P1;SDS_P2;PMS_P1;PMS_P2;Temp;Humidity;BMP_temperature;BMP_pressure;BME280_temperature;BME280_humidity;BME280_pressure;Samples;Min_cycle;Max_cycle;Signal;HPM_P1;HPM_P2
2022/10/03 00:00:40;;;;;;;;;6.40;6.20;;;;;16.98;78.16;101161.25;4656239;28;2737746;-73
2022/10/03 00:03:50;;;;;;;;;6.00;6.00;;;;;17.12;78.28;101172.00;4637174;28;2741256;-73
2022/10/03 00:06:46;;;;;;;;;7.40;7.00;;;;;17.19;78.03;101174.75;4577293;28;2725314;-69
2022/10/03 00:09:46;;;;;;;;;7.00;6.00;;;;;17.12;78.00;101135.06;4619317;28;2736755;-72
2022/10/03 00:12:35;;;;;;;;;9.00;6.20;;;;;17.39;77.64;101169.72;4658060;28;2743342;-73
2022/10/03 00:15:17;;;;;;;;;8.50;7.00;;;;;17.43;77.27;101165.38;4616646;28;2734684;-73
2022/10/03 00:18:13;;;;;;;;;7.00;6.00;;;;;17.45;77.12;101168.91;4624099;28;2735702;-73
2022/10/03 00:21:08;;;;;;;;;7.40;6.40;;;;;17.50;76.97;101165.41;4637306;28;2738804;-73
2022/10/03 00:23:58;;;;;;;;;8.60;7.60;;;;;17.56;76.93;101163.72;4658357;28;2744003;-72
2022/10/03 00:27:00;;;;;;;;;6.80;6.60;;;;;17.54;76.74;101154.91;4636192;28;2735682;-73
2022/10/03 00:29:37;;;;;;;;;5.00;5.00;;;;;17.53;76.38;101148.75;4659575;28;2732930;-73
2022/10/03 00:32:29;;;;;;;;;10.40;7.20;;;;;17.55;76.86;101160.22;4635569;28;2763794;-73
2022/10/03 00:35:21;;;;;;;;;7.60;7.40;;;;;17.52;76.81;101162.81;4637251;28;2741901;-68
2022/10/03 00:38:08;;;;;;;;;7.20;6.60;;;;;17.58;76.95;101165.50;4641132;28;2743186;-68
2022/10/03 00:40:54;;;;;;;;;9.00;8.60;;;;;17.63;76.89;101166.47;4658087;28;2741944;-68
2022/10/03 00:43:42;;;;;;;;;8.00;7.00;;;;;17.68;76.61;101159.44;4639168;28;2734712;-68
2022/10/03 00:46:12;;;;;;;;;6.80;6.80;;;;;17.71;76.21;101158.63;4635779;28;2731485;-68
2022/10/03 00:49:16;;;;;;;;;7.40;7.40;;;;;17.73;76.35;101158.66;4655465;28;2746131;-68
2022/10/03 00:52:15;;;;;;;;;6.80;6.00;;;;;17.73;76.18;101156.88;4635476;28;2740914;-68
2022/10/03 00:55:18;;;;;;;;;6.20;5.60;;;;;17.65;76.17;101140.06;4658678;28;2743299;-72
2022/10/03 00:57:51;;;;;;;;;6.00;5.60;;;;;17.75;76.70;101155.13;4635718;28;2737734;-73
2022/10/03 01:00:26;;;;;;;;;6.80;6.80;;;;;17.66;76.42;101132.13;4658406;28;2745069;-68
2022/10/03 01:02:57;;;;;;;;;6.20;5.60;;;;;17.74;76.95;101152.47;4635769;28;2738846;-72
2022/10/03 01:05:30;;;;;;;;;7.60;6.40;;;;;17.74;77.13;101153.34;4631308;28;2739907;-72
2022/10/03 01:08:20;;;;;;;;;7.00;6.00;;;;;17.64;77.38;101140.91;4635790;28;2743996;-70
2022/10/03 01:11:19;;;;;;;;;7.60;6.80;;;;;17.70;77.27;101156.84;4657218;28;2739845;-73
2022/10/03 01:14:07;;;;;;;;;8.50;7.50;;;;;17.72;77.43;101146.28;4639730;28;2733603;-73
2022/10/03 01:16:53;;;;;;;;;8.60;7.60;;;;;17.75;77.49;101148.97;4637215;28;2739861;-67
2022/10/03 01:19:52;;;;;;;;;7.80;7.00;;;;;17.76;77.29;101151.59;4635228;28;2737758;-73
2022/10/03 01:22:56;;;;;;;;;5.00;5.00;;;;;17.79;77.26;101143.72;4634976;28;2747140;-67
2022/10/03 01:25:29;;;;;;;;;8.00;6.00;;;;;17.80;77.46;101145.47;4635230;28;2746110;-68
2022/10/03 01:31:07;;;;;;;;;8.40;7.20;;;;;17.77;77.52;101139.31;4633985;28;2727330;-68
2022/10/03 01:33:40;;;;;;;;;7.00;7.00;;;;;17.73;76.93;101124.28;4640328;28;2732570;-73
2022/10/03 01:36:33;;;;;;;;;7.80;7.00;;;;;17.83;77.13;101139.38;4636017;28;2737785;-73
2022/10/03 01:39:15;;;;;;;;;6.00;6.00;;;;;17.70;77.21;101118.06;4634810;28;2729503;-72
2022/10/03 01:42:02;;;;;;;;;8.80;6.40;;;;;17.79;77.45;101121.72;4657643;28;2738780;-72
2022/10/03 01:44:29;;;;;;;;;8.40;7.40;;;;;17.86;77.18;101126.19;4634520;28;2733596;-73
2022/10/03 01:47:33;;;;;;;;;6.00;5.67;;;;;17.87;77.33;101125.34;4662366;28;2732541;-72
2022/10/03 01:50:23;;;;;;;;;6.00;5.60;;;;;17.83;77.76;101115.56;4621196;28;2730450;-73
2022/10/03 01:53:12;;;;;;;;;7.20;6.60;;;;;17.77;77.78;101119.03;4639699;28;2730828;-72
2022/10/03 01:56:03;;;;;;;;;7.40;7.20;;;;;17.78;77.60;101120.78;4639472;28;2735679;-73
2022/10/03 01:58:46;;;;;;;;;7.80;7.60;;;;;17.74;77.93;101103.16;4640161;28;2739181;-73
2022/10/03 02:01:33;;;;;;;;;8.00;7.00;;;;;17.83;77.67;101116.50;4597423;28;2741913;-73
2022/10/03 02:04:13;;;;;;;;;9.60;6.00;;;;;17.69;77.50;101087.25;4615442;28;2754444;-73
2022/10/03 02:06:44;;;;;;;;;7.00;6.00;;;;;17.85;77.87;101112.09;4597258;28;2739877;-73
2022/10/03 02:09:27;;;;;;;;;6.40;6.40;;;;;17.78;78.06;101094.38;4599035;28;2739869;-73
2022/10/03 02:11:59;;;;;;;;;7.00;7.00;;;;;17.88;77.86;101104.19;4595731;28;2735722;-72
2022/10/03 02:14:47;;;;;;;;;6.60;6.60;;;;;17.85;78.14;101103.28;4616636;28;2732580;-71
2022/10/03 02:17:29;;;;;;;;;7.00;6.00;;;;;17.83;78.24;101105.00;4578016;28;2731590;-73
2022/10/03 02:20:08;;;;;;;;;6.60;6.00;;;;;17.76;77.95;101087.31;4617346;28;2736716;-72
2022/10/03 02:22:43;;;;;;;;;7.80;7.60;;;;;17.69;78.28;101087.25;4615980;28;2734653;-68
2022/10/03 02:25:34;;;;;;;;;8.40;7.60;;;;;17.63;78.13;101096.91;4597862;28;2741948;-72
2022/10/03 02:28:32;;;;;;;;;7.80;7.60;;;;;17.55;78.44;101096.81;4588154;28;2744035;-68
2022/10/03 02:31:39;;;;;;;;;6.60;6.20;;;;;17.58;78.24;101093.31;4621193;28;2739876;-72
2022/10/03 02:34:16;;;;;;;;;5.60;5.40;;;;;17.54;78.32;101086.22;4633201;28;2746075;-73
2022/10/03 02:37:03;;;;;;;;;9.00;7.00;;;;;17.49;78.51;101073.84;4614451;28;2749216;-73
2022/10/03 02:39:33;;;;;;;;;9.60;8.80;;;;;17.49;78.36;101079.13;4634619;28;2744415;-72
2022/10/03 02:42:31;;;;;;;;;9.40;9.20;;;;;17.49;78.46;101072.97;4629371;28;2757580;-73
2022/10/03 02:45:25;;;;;;;;;8.60;8.00;;;;;17.41;78.75;101059.69;4635355;28;2746135;-71
2022/10/03 02:48:32;;;;;;;;;6.20;5.80;;;;;17.44;78.39;101070.28;4633830;28;2740855;-68
2022/10/03 02:51:36;;;;;;;;;8.40;7.20;;;;;17.53;78.33;101074.78;4633680;28;2738146;-68
2022/10/03 02:54:14;;;;;;;;;7.80;7.80;;;;;17.53;78.67;101068.59;4632460;28;2738776;-68
2022/10/03 02:57:15;;;;;;;;;10.00;7.40;;;;;17.38;78.63;101046.44;4654456;28;2766936;-72
2022/10/03 03:00:08;;;;;;;;;10.33;9.33;;;;;17.55;78.92;101073.03;4612788;28;2781514;-73
2022/10/03 03:02:41;;;;;;;;;8.80;7.80;;;;;17.58;78.51;101066.88;4656515;28;2743980;-73
2022/10/03 03:05:21;;;;;;;;;10.40;7.60;;;;;17.56;78.97;101069.50;4632741;28;2755480;-68
2022/10/03 03:08:03;;;;;;;;;8.20;7.60;;;;;17.57;79.19;101076.59;4632606;28;2743992;-72
2022/10/03 03:11:00;;;;;;;;;9.50;8.00;;;;;17.51;79.31;101058.03;4611984;28;2756581;-73
2022/10/03 03:13:44;;;;;;;;;8.20;7.60;;;;;17.61;79.40;101062.53;4633261;28;2748174;-69
2022/10/03 03:16:20;;;;;;;;;8.20;7.60;;;;;17.64;79.17;101059.91;4633534;28;2748146;-72
2022/10/03 03:19:31;;;;;;;;;5.50;5.50;;;;;17.67;79.11;101062.56;4613789;28;2734695;-70
2022/10/03 03:22:09;;;;;;;;;8.60;8.40;;;;;17.70;79.09;101051.13;4618406;28;2739858;-68
2022/10/03 03:24:57;;;;;;;;;9.67;8.67;;;;;17.65;79.53;101048.47;4610953;28;2756869;-73
2022/10/03 03:28:00;;;;;;;;;9.40;9.00;;;;;17.61;79.46;101035.22;4656078;28;2771065;-73
2022/10/03 03:30:49;;;;;;;;;7.20;7.20;;;;;17.70;79.30;101040.56;4632837;28;2733951;-68
2022/10/03 03:33:24;;;;;;;;;8.50;8.50;;;;;17.69;79.30;101047.63;4619209;28;2746146;-68
2022/10/03 03:36:17;;;;;;;;;7.60;7.00;;;;;17.62;79.61;101036.97;4633462;28;2737774;-72
2022/10/03 03:39:11;;;;;;;;;8.20;8.20;;;;;17.66;79.63;101044.94;4633525;28;2746130;-73
2022/10/03 03:41:54;;;;;;;;;8.60;8.00;;;;;17.64;79.64;101043.16;4633490;28;2750276;-68
2022/10/03 03:44:34;;;;;;;;;5.00;4.00;;;;;17.63;79.40;101050.22;4614193;28;2741947;-69
2022/10/03 03:47:29;;;;;;;;;10.60;7.60;;;;;17.65;79.23;101053.75;4637299;28;2746131;-68
2022/10/03 03:50:05;;;;;;;;;9.00;8.80;;;;;17.65;79.21;101048.47;4635195;28;2760658;-68
2022/10/03 03:52:39;;;;;;;;;11.60;7.20;;;;;17.62;79.27;101035.22;4635316;28;2745422;-68
2022/10/03 03:55:40;;;;;;;;;7.80;7.60;;;;;17.60;79.13;101031.69;4636177;28;2741940;-73
2022/10/03 03:58:46;;;;;;;;;7.50;7.50;;;;;17.49;79.72;101017.50;4617689;28;2750308;-68
2022/10/03 04:01:17;;;;;;;;;10.20;9.60;;;;;17.53;79.94;101032.50;4637170;28;2761712;-68
2022/10/03 04:04:03;;;;;;;;;7.60;7.20;;;;;17.48;80.06;101024.53;4632880;28;2746134;-73
2022/10/03 04:06:55;;;;;;;;;10.00;8.60;;;;;17.41;79.41;101016.56;4635236;28;2746429;-73
2022/10/03 04:09:28;;;;;;;;;8.80;8.20;;;;;17.39;80.04;101020.91;4635851;28;2735663;-68
2022/10/03 04:12:15;;;;;;;;;7.60;7.00;;;;;17.24;80.68;101009.34;4634525;28;2739817;-72
2022/10/03 04:15:13;;;;;;;;;8.20;7.80;;;;;17.21;80.83;101025.16;4634225;28;2742965;-73
2022/10/03 04:20:59;;;;;;;;;10.00;8.50;;;;;17.17;80.89;101022.44;4616569;28;2755498;-71
2022/10/03 04:23:46;;;;;;;;;9.40;8.00;;;;;17.11;80.87;101015.38;4627498;28;2763822;-68
2022/10/03 04:26:22;;;;;;;;;10.20;8.40;;;;;17.04;81.33;101010.88;4633313;28;2758617;-73
2022/10/03 04:29:24;;;;;;;;;5.00;5.00;;;;;16.97;80.95;101009.03;4614418;28;2746111;-71
2022/10/03 04:32:20;;;;;;;;;11.20;10.00;;;;;16.89;81.48;101009.84;4634370;28;2790959;-68
2022/10/03 04:35:07;;;;;;;;;9.00;8.00;;;;;16.84;81.56;101006.25;4610533;28;2746118;-68
2022/10/03 04:37:49;;;;;;;;;9.00;8.60;;;;;16.64;81.50;100981.38;4634725;28;2738823;-67
2022/10/03 04:40:40;;;;;;;;;7.20;6.60;;;;;16.55;81.85;100990.03;4655706;28;2731524;-72
2022/10/03 04:43:23;;;;;;;;;8.40;8.40;;;;;16.63;81.69;101013.88;4655901;28;2739853;-68
2022/10/03 04:46:41;;;;;;;;;8.00;7.80;;;;;16.53;82.14;101012.88;4631377;28;2735710;-68
2022/10/03 04:49:42;;;;;;;;;9.60;8.00;;;;;16.36;82.28;100983.66;4599276;28;2761728;-73
2022/10/03 04:52:24;;;;;;;;;7.00;7.00;;;;;16.40;82.22;101006.56;4575809;28;2733591;-69
2022/10/03 04:55:25;;;;;;;;;7.40;6.80;;;;;16.37;82.15;101001.25;4648405;28;2737809;-68
2022/10/03 04:58:00;;;;;;;;;9.80;9.80;;;;;16.34;82.42;101002.97;4654180;28;2790216;-68
2022/10/03 05:00:56;;;;;;;;;8.40;8.00;;;;;16.26;83.02;100993.19;4633812;28;2741935;-73
2022/10/03 05:03:40;;;;;;;;;10.00;8.20;;;;;16.21;82.04;100989.59;4632228;28;2774227;-68
2022/10/03 05:06:27;;;;;;;;;7.50;7.00;;;;;16.17;82.28;100984.28;4613815;28;2736071;-73
2022/10/03 05:09:26;;;;;;;;;8.00;7.00;;;;;16.12;82.33;100984.22;4614353;28;2738874;-73
2022/10/03 05:12:09;;;;;;;;;7.00;6.60;;;;;16.03;82.56;100969.13;4634333;28;2739885;-72
2022/10/03 05:14:56;;;;;;;;;11.00;8.40;;;;;16.08;82.21;100991.19;4631998;28;2762761;-73
2022/10/03 05:17:47;;;;;;;;;8.80;6.80;;;;;16.02;82.34;100977.03;4631116;28;2736059;-72
2022/10/03 05:20:33;;;;;;;;;6.60;6.40;;;;;15.97;81.96;100978.72;4633238;28;2739852;-72
2022/10/03 05:23:22;;;;;;;;;7.60;7.00;;;;;15.88;82.12;100966.31;4654448;28;2731505;-67
2022/10/03 05:25:52;;;;;;;;;10.33;10.00;;;;;15.89;81.65;100981.22;4633451;28;3519020;-72
2022/10/03 05:28:40;;;;;;;;;7.00;7.00;;;;;15.83;81.22;100978.50;4652917;28;2738828;-72
2022/10/03 05:31:45;;;;;;;;;5.40;5.40;;;;;15.80;81.29;100982.00;4653861;28;2734660;-73
2022/10/03 05:34:35;;;;;;;;;7.40;7.40;;;;;15.75;81.14;100983.66;4655867;28;2736784;-68
2022/10/03 05:37:33;;;;;;;;;6.00;6.00;;;;;15.71;81.34;100977.41;4634513;28;2737190;-73
2022/10/03 05:40:30;;;;;;;;;7.40;6.00;;;;;15.60;81.19;100963.19;4630758;28;2740891;-68
2022/10/03 05:43:21;;;;;;;;;8.00;7.50;;;;;15.64;81.31;100977.31;4637728;28;2735711;-68
2022/10/03 05:46:17;;;;;;;;;6.60;6.00;;;;;15.48;81.52;100956.00;4632335;28;2746083;-73
2022/10/03 05:49:09;;;;;;;;;7.20;6.40;;;;;15.56;81.84;100977.19;4650131;27;2738780;-73
2022/10/03 05:51:48;;;;;;;;;11.00;10.00;;;;;15.36;81.80;100968.03;4656986;28;2788801;-73
2022/10/03 05:54:46;;;;;;;;;9.00;8.00;;;;;15.38;81.71;100982.13;4635233;28;2750241;-73
2022/10/03 05:57:32;;;;;;;;;7.00;6.80;;;;;15.36;81.84;100978.56;4634947;28;2731512;-72
2022/10/03 06:00:41;;;;;;;;;7.60;7.20;;;;;15.36;81.91;100973.31;4656479;28;2746126;-71
2022/10/03 06:03:29;;;;;;;;;11.00;11.00;;;;;15.34;82.04;100969.75;4594710;28;2792260;-68
2022/10/03 06:06:32;;;;;;;;;8.40;8.00;;;;;15.31;81.88;100965.34;4634687;28;2746091;-69
2022/10/03 06:09:28;;;;;;;;;10.60;10.60;;;;;15.23;82.07;100945.91;4612762;28;2791903;-73
2022/10/03 06:12:09;;;;;;;;;10.40;10.40;;;;;15.29;81.30;100957.41;4633630;28;2789827;-73
2022/10/03 06:14:35;;;;;;;;;11.33;10.00;;;;;15.38;81.43;100968.94;4611626;28;2786934;-68
2022/10/03 06:17:27;;;;;;;;;9.00;8.50;;;;;15.26;81.06;100962.63;4634498;28;2738847;-73
2022/10/03 06:20:11;;;;;;;;;11.00;10.00;;;;;15.41;80.69;100971.66;4611827;28;2785832;-73
2022/10/03 06:23:03;;;;;;;;;9.00;9.00;;;;;15.47;80.65;100967.38;4656978;28;2754820;-72
2022/10/03 06:25:46;;;;;;;;;10.00;9.20;;;;;15.53;80.37;100969.22;4632027;28;2754431;-72
2022/10/03 06:28:43;;;;;;;;;8.80;8.20;;;;;15.51;80.04;100957.78;4616618;28;2741949;-72
2022/10/03 06:31:29;;;;;;;;;9.00;8.60;;;;;15.67;79.80;100972.06;4614941;28;2745070;-72
2022/10/03 06:34:00;;;;;;;;;10.00;8.00;;;;;15.74;79.61;100968.72;4594138;28;2756520;-73
2022/10/03 06:36:41;;;;;;;;;9.40;8.80;;;;;15.84;79.55;100961.84;4616576;28;2766940;-71
2022/10/03 06:39:45;;;;;;;;;11.00;11.00;;;;;15.89;78.90;100965.41;4607510;28;3514149;-73
2022/10/03 06:42:50;;;;;;;;;7.00;6.60;;;;;15.84;79.03;100964.50;4653884;28;2739872;-72
2022/10/03 06:45:29;;;;;;;;;7.00;7.00;;;;;15.85;78.60;100958.34;4609354;28;2739884;-73
2022/10/03 06:48:34;;;;;;;;;10.60;8.80;;;;;16.04;78.54;100973.56;4631908;28;2760681;-73
2022/10/03 06:51:10;;;;;;;;;9.60;8.40;;;;;16.21;77.93;100973.78;4632353;28;2749283;-73
2022/10/03 06:54:15;;;;;;;;;8.60;8.20;;;;;16.38;77.47;100975.78;4631901;28;2744017;-68
2022/10/03 06:57:03;;;;;;;;;10.00;9.60;;;;;16.57;76.98;100972.47;4632535;28;2785724;-69
2022/10/03 06:59:52;;;;;;;;;9.20;8.20;;;;;16.79;75.99;100978.94;4634163;28;2760685;-68
2022/10/03 07:02:35;;;;;;;;;9.00;8.50;;;;;16.90;75.41;100977.31;4611200;28;2760744;-68
2022/10/03 07:05:21;;;;;;;;;10.20;9.60;;;;;17.03;75.43;100974.78;4634385;28;2777362;-73
2022/10/03 07:08:08;;;;;;;;;7.80;7.20;;;;;17.18;74.30;100972.31;4633141;28;2744364;-73
2022/10/03 07:10:56;;;;;;;;;9.00;7.60;;;;;17.34;74.17;100978.63;4630067;28;2731559;-71
2022/10/03 07:14:07;;;;;;;;;6.00;5.40;;;;;17.52;72.78;100979.66;4654061;28;2736739;-73
2022/10/03 07:17:01;;;;;;;;;10.33;10.00;;;;;17.57;72.03;100975.31;4630365;28;3513116;-72
2022/10/03 07:20:16;;;;;;;;;16.00;13.00;;;;;18.20;69.90;100984.56;4637337;28;2800279;-72
2022/10/03 07:23:05;;;;;;;;;43.33;36.67;;;;;20.69;64.93;100986.59;4569034;28;3605468;-72
2022/10/03 07:25:43;;;;;;;;;25.00;23.33;;;;;22.84;57.50;100975.81;4608780;28;2846190;-73
2022/10/03 07:28:47;;;;;;;;;10.67;9.00;;;;;24.58;54.39;100972.84;4629486;28;3486733;-73
2022/10/03 07:32:02;;;;;;;;;11.67;10.67;;;;;25.28;50.49;100957.00;4587810;28;3507950;-73
2022/10/03 07:35:07;;;;;;;;;12.00;11.00;;;;;26.33;48.75;100976.56;4600095;28;2791974;-73
2022/10/03 07:41:00;;;;;;;;;9.20;8.80;;;;;28.52;42.80;100970.31;4632394;28;2758629;-72
2022/10/03 07:44:06;;;;;;;;;5.40;5.00;;;;;28.80;43.26;100952.25;4632685;28;2740879;-73
2022/10/03 07:46:54;;;;;;;;;10.67;9.00;;;;;29.18;42.05;100976.75;4614944;28;2768016;-73
2022/10/03 07:49:47;;;;;;;;;8.60;8.60;;;;;29.70;40.95;100967.34;4654163;28;2753382;-74
2022/10/03 07:52:24;;;;;;;;;9.00;8.00;;;;;30.25;39.55;100968.59;4600872;28;2739913;-73
2022/10/03 07:55:10;;;;;;;;;8.20;7.60;;;;;30.35;40.10;100971.78;4651637;27;2741920;-73
2022/10/03 07:58:11;;;;;;;;;6.60;6.20;;;;;30.36;40.18;100973.50;4614708;28;2733611;-69
2022/10/03 08:00:46;;;;;;;;;7.00;6.60;;;;;30.66;39.27;100974.81;4617185;28;2741945;-69
2022/10/03 08:03:32;;;;;;;;;6.40;6.40;;;;;30.75;39.75;100967.22;4631923;28;2728406;-70
2022/10/03 08:06:17;;;;;;;;;3.60;3.60;;;;;31.09;37.95;100958.38;4654310;28;2746078;-72
2022/10/03 08:09:08;;;;;;;;;8.00;7.33;;;;;31.43;38.07;100962.97;4614135;28;2743018;-71
2022/10/03 08:11:53;;;;;;;;;4.80;4.60;;;;;31.83;36.99;100969.03;4655749;28;2748531;-72
2022/10/03 08:14:49;;;;;;;;;6.00;5.80;;;;;32.47;36.15;100967.47;4632503;28;2738799;-71
2022/10/03 08:17:37;;;;;;;;;7.40;5.80;;;;;33.33;34.70;100969.88;4632538;28;2737738;-72
2022/10/03 08:20:30;;;;;;;;;6.80;5.80;;;;;34.24;33.92;100976.16;4631759;28;2745024;-72
2022/10/03 08:23:31;;;;;;;;;5.80;5.20;;;;;35.14;31.77;100973.16;4632421;28;2743353;-72
2022/10/03 08:26:05;;;;;;;;;6.00;5.60;;;;;35.95;30.97;100972.19;4631075;28;2724223;-72
2022/10/03 08:28:51;;;;;;;;;5.00;5.00;;;;;36.37;29.00;100973.78;4632218;28;2747509;-72
2022/10/03 08:31:32;;;;;;;;;5.80;4.40;;;;;36.37;29.36;100978.31;4632600;28;2747117;-73
2022/10/03 08:34:18;;;;;;;;;5.20;5.20;;;;;36.26;29.05;100967.38;4635319;28;2732537;-73
2022/10/03 08:37:12;;;;;;;;;5.40;5.00;;;;;36.01;30.09;100966.34;4635158;28;2749231;-69
2022/10/03 08:40:19;;;;;;;;;4.20;4.00;;;;;35.96;29.50;100966.66;4635379;28;2737151;-70
2022/10/03 08:43:08;;;;;;;;;4.80;4.80;;;;;35.95;29.21;100972.19;4634486;28;2739817;-69
2022/10/03 08:45:47;;;;;;;;;6.60;6.00;;;;;35.93;30.53;100963.28;4635544;28;2734614;-70
2022/10/03 08:48:36;;;;;;;;;5.60;5.60;;;;;35.99;30.18;100976.44;4635941;28;2729455;-70
2022/10/03 08:51:27;;;;;;;;;5.60;4.60;;;;;36.15;29.78;100971.72;4658426;28;2748163;-72
2022/10/03 08:54:12;;;;;;;;;5.00;5.00;;;;;36.03;30.07;100978.88;4615807;28;2729452;-70
2022/10/03 08:57:13;;;;;;;;;7.00;6.80;;;;;36.12;28.84;100971.91;4657511;28;2738779;-72
2022/10/03 09:00:02;;;;;;;;;5.00;5.00;;;;;35.79;29.65;100972.41;4635799;28;2726317;-71
2022/10/03 09:02:59;;;;;;;;;3.20;3.00;;;;;35.52;29.89;100961.59;4658428;28;2736697;-72
2022/10/03 09:05:51;;;;;;;;;5.00;5.00;;;;;35.16;30.25;100950.38;4635464;28;2745037;-70
2022/10/03 09:08:43;;;;;;;;;5.60;5.60;;;;;34.61;31.11;100968.38;4634161;28;2736068;-69
2022/10/03 09:11:13;;;;;;;;;6.00;6.00;;;;;34.29;31.65;100966.88;4633703;28;2739884;-70
2022/10/03 09:14:19;;;;;;;;;6.40;6.00;;;;;34.07;32.68;100960.91;4632215;28;2736755;-72
2022/10/03 09:16:47;;;;;;;;;4.40;4.00;;;;;34.21;32.29;100954.66;4577692;28;2745033;-70
2022/10/03 09:19:51;;;;;;;;;5.40;4.80;;;;;34.31;32.20;100957.66;4586505;28;2750302;-72
2022/10/03 09:22:43;;;;;;;;;3.60;3.60;;;;;34.20;32.31;100944.78;4618257;28;2736692;-72
2022/10/03 09:25:53;;;;;;;;;4.60;3.40;;;;;34.15;31.79;100948.75;4635243;28;2748162;-71
2022/10/03 09:28:20;;;;;;;;;4.60;4.40;;;;;34.06;31.82;100942.91;4626836;28;2741907;-72
2022/10/03 09:30:54;;;;;;;;;5.33;4.33;;;;;33.31;32.66;100939.31;4646288;28;2741909;-72
2022/10/03 09:33:38;;;;;;;;;6.00;6.00;;;;;33.11;33.27;100926.06;4634750;28;2746098;-72
2022/10/03 09:36:36;;;;;;;;;4.40;4.20;;;;;32.92;34.64;100937.06;4634618;28;2734614;-70
2022/10/03 09:39:50;;;;;;;;;5.00;5.00;;;;;33.16;34.09;100921.25;4634220;28;2752329;-70
2022/10/03 09:42:55;;;;;;;;;4.00;4.00;;;;;33.35;33.74;100927.34;4634368;28;2737774;-70
2022/10/03 09:45:34;;;;;;;;;5.40;5.00;;;;;33.48;33.69;100922.94;4658173;28;2746463;-69
2022/10/03 09:48:19;;;;;;;;;5.00;4.40;;;;;33.52;32.63;100920.88;4634532;28;2745033;-70
2022/10/03 09:51:00;;;;;;;;;4.60;4.60;;;;;33.51;32.27;100916.47;4634323;28;2746098;-70
2022/10/03 09:53:44;;;;;;;;;5.00;5.00;;;;;33.51;31.96;100912.88;4634296;28;2736704;-70
2022/10/03 09:56:38;;;;;;;;;4.20;4.00;;;;;33.44;32.65;100918.63;4657502;28;2740874;-70
2022/10/03 09:59:17;;;;;;;;;5.80;5.80;;;;;33.48;32.71;100913.91;4632618;28;2737742;-72
2022/10/03 10:01:53;;;;;;;;;3.60;3.00;;;;;33.69;33.21;100895.53;4634673;28;2752396;-70
2022/10/03 10:04:46;;;;;;;;;4.00;4.00;;;;;33.98;32.64;100912.69;4634477;28;2736769;-72
2022/10/03 10:07:50;;;;;;;;;4.00;4.00;;;;;33.64;33.20;100908.47;4656930;28;2733993;-71
2022/10/03 10:10:54;;;;;;;;;5.80;4.60;;;;;33.23;34.00;100907.28;4633610;28;2746451;-72
2022/10/03 10:13:56;;;;;;;;;5.60;5.60;;;;;33.02;33.58;100914.78;4633771;28;2725262;-70
2022/10/03 10:16:44;;;;;;;;;8.00;7.80;;;;;32.90;35.12;100904.66;4657030;28;2746094;-72
2022/10/03 10:19:40;;;;;;;;;6.40;5.20;;;;;32.90;34.49;100904.66;4632485;28;2736723;-72
2022/10/03 10:22:25;;;;;;;;;4.20;4.20;;;;;32.28;35.65;100893.72;4633521;28;2745048;-72
2022/10/03 10:25:26;;;;;;;;;4.20;4.20;;;;;32.30;35.76;100883.69;4632613;28;2750261;-70
2022/10/03 10:28:10;;;;;;;;;4.80;4.80;;;;;32.41;35.71;100893.91;4632580;28;2750246;-70
2022/10/03 10:31:19;;;;;;;;;4.00;4.00;;;;;32.34;36.68;100892.53;4632294;28;2744050;-71
2022/10/03 10:34:04;;;;;;;;;6.00;6.00;;;;;31.89;36.79;100884.09;4624691;28;2740894;-70
2022/10/03 10:37:06;;;;;;;;;6.00;5.00;;;;;31.88;37.48;100885.94;4632194;28;2745434;-72
2022/10/03 10:40:06;;;;;;;;;5.60;5.60;;;;;31.84;36.87;100878.94;4633704;28;2739824;-72
2022/10/03 10:43:05;;;;;;;;;5.40;4.00;;;;;31.49;37.71;100880.81;4651923;28;2746074;-72
2022/10/03 10:45:50;;;;;;;;;5.20;5.00;;;;;31.43;38.74;100879.28;4632334;28;2735702;-72
2022/10/03 10:48:30;;;;;;;;;4.20;4.20;;;;;31.30;38.70;100876.34;4657036;28;2744007;-72
2022/10/03 10:51:03;;;;;;;;;5.00;5.00;;;;;31.25;38.96;100874.84;4634090;28;2738131;-70
2022/10/03 10:54:08;;;;;;;;;6.60;6.40;;;;;31.14;39.17;100872.69;4632833;28;2737765;-69
2022/10/03 10:56:50;;;;;;;;;4.80;4.00;;;;;31.12;39.41;100866.50;4632472;28;2730510;-70
2022/10/03 10:59:53;;;;;;;;;5.20;5.00;;;;;30.91;40.20;100863.91;4657289;28;2734652;-70
2022/10/03 11:02:45;;;;;;;;;5.20;4.60;;;;;30.81;40.43;100857.22;4630223;28;2741956;-69
2022/10/03 11:05:31;;;;;;;;;4.00;4.00;;;;;30.72;40.58;100860.38;4655957;28;2740446;-71
2022/10/03 11:08:07;;;;;;;;;5.00;5.00;;;;;29.99;41.72;100862.03;4631486;28;2742953;-73
2022/10/03 11:10:51;;;;;;;;;5.20;5.00;;;;;30.06;42.56;100858.97;4633223;28;2748181;-72
2022/10/03 11:13:21;;;;;;;;;6.20;5.40;;;;;30.14;42.17;100847.81;4633476;28;2745072;-72
2022/10/03 11:16:26;;;;;;;;;5.00;5.00;;;;;30.18;42.03;100840.47;4630271;28;2733639;-72
2022/10/03 11:19:25;;;;;;;;;6.60;6.60;;;;;30.11;41.70;100840.75;4633782;28;2732534;-70
2022/10/03 11:22:19;;;;;;;;;4.80;4.00;;;;;29.83;42.63;100843.88;4631103;28;2735685;-69
2022/10/03 11:25:12;;;;;;;;;6.00;5.60;;;;;29.88;43.28;100849.94;4604771;28;2739868;-70
2022/10/03 11:28:08;;;;;;;;;5.20;5.00;;;;;29.84;42.79;100845.59;4654723;28;2737742;-69
2022/10/03 11:31:26;;;;;;;;;4.00;4.00;;;;;29.82;42.98;100838.53;4636291;28;2748245;-70
2022/10/03 11:34:14;;;;;;;;;5.00;5.00;;;;;29.35;44.17;100840.56;4603830;28;2746091;-71
2022/10/03 11:37:19;;;;;;;;;3.60;3.60;;;;;29.38;44.60;100836.00;4632618;28;2737808;-72
2022/10/03 11:40:08;;;;;;;;;4.80;4.80;;;;;29.40;44.09;100836.81;4633209;28;2738803;-72
2022/10/03 11:43:08;;;;;;;;;5.40;5.40;;;;;29.28;44.77;100833.69;4655139;28;2739861;-72
2022/10/03 11:45:48;;;;;;;;;3.60;3.00;;;;;29.03;44.80;100823.09;4656089;28;2742955;-72
2022/10/03 11:48:39;;;;;;;;;6.00;5.60;;;;;28.80;46.03;100818.69;4632613;28;2726312;-72
2022/10/03 11:51:17;;;;;;;;;5.00;5.00;;;;;28.53;46.04;100818.00;4631668;28;2739868;-70
2022/10/03 11:53:59;;;;;;;;;3.40;3.40;;;;;28.49;46.47;100809.19;4631428;28;2746098;-71
2022/10/03 11:56:35;;;;;;;;;4.80;4.80;;;;;28.50;46.81;100815.41;4632815;28;2737785;-72
2022/10/03 11:59:12;;;;;;;;;4.00;4.00;;;;;28.51;46.72;100817.19;4631861;28;2728399;-69
2022/10/03 12:01:45;;;;;;;;;5.00;4.80;;;;;28.55;45.70;100816.13;4655930;28;2746064;-70
2022/10/03 12:04:37;;;;;;;;;5.00;5.00;;;;;28.55;45.64;100817.00;4633043;28;2745041;-70
2022/10/03 12:10:38;;;;;;;;;4.67;4.67;;;;;28.32;46.01;100799.09;4641085;28;2722533;-72
2022/10/03 12:13:22;;;;;;;;;5.80;5.00;;;;;28.09;45.57;100801.81;4658762;28;2742969;-70
2022/10/03 12:15:53;;;;;;;;;4.80;4.80;;;;;28.09;46.41;100793.75;4635531;28;2742961;-69
2022/10/03 12:18:49;;;;;;;;;6.00;5.20;;;;;28.08;46.14;100800.06;4631859;28;2732578;-70
2022/10/03 12:21:50;;;;;;;;;3.60;3.60;;;;;28.15;45.99;100806.94;4635072;28;2741904;-72
2022/10/03 12:24:29;;;;;;;;;4.00;4.00;;;;;28.22;46.20;100799.53;4635642;28;2732529;-72
2022/10/03 12:27:06;;;;;;;;;5.00;5.00;;;;;28.32;46.25;100801.78;4659009;28;2748601;-72
2022/10/03 12:29:37;;;;;;;;;4.20;4.20;;;;;28.11;45.90;100784.72;4635638;28;2733570;-72
2022/10/03 12:32:34;;;;;;;;;3.60;3.60;;;;;28.21;45.82;100789.69;4635184;28;2752379;-71
2022/10/03 12:35:40;;;;;;;;;3.20;3.00;;;;;28.05;46.20;100787.59;4620482;28;2742261;-70
2022/10/03 12:38:23;;;;;;;;;3.00;3.00;;;;;28.05;45.64;100786.75;4632866;28;2746063;-70
2022/10/03 12:41:03;;;;;;;;;6.40;5.00;;;;;28.04;45.90;100779.63;4634548;28;2738787;-70
2022/10/03 12:43:47;;;;;;;;;4.20;4.20;;;;;28.12;45.74;100786.44;4634190;28;2742957;-70
2022/10/03 12:46:43;;;;;;;;;4.40;4.00;;;;;28.25;45.85;100776.13;4633470;28;2744006;-70
2022/10/03 12:49:39;;;;;;;;;4.20;4.00;;;;;28.22;45.82;100759.22;4621258;28;2733925;-70
2022/10/03 12:52:24;;;;;;;;;3.40;3.00;;;;;28.09;45.24;100761.50;4659062;28;2734624;-73
2022/10/03 12:55:29;;;;;;;;;3.00;3.00;;;;;28.24;45.72;100754.69;4658512;28;2748154;-72
2022/10/03 12:58:11;;;;;;;;;3.80;3.80;;;;;28.28;46.15;100770.59;4634915;28;2746098;-72